KSSI/SSI METAR and TAF weather

Enter ICAO airport designator
Station Type Date Time Source
KSSI METAR 2018/12/11 22:53 UTC NOAA

KSSI 112253Z AUTO 28004KT 10SM CLR 11/03 A3025 RMK AO2 SLP245 T01060028 PNO


Station Type Date Time Source
KSSI Decoded METAR 2018/12/11 22:53 UTC NOAA

BRUNSWICK MC KINNON AIRPORT , GA, United States (KSSI) 31-09N 081-23W 6M
Dec 11, 2018 - 05:53 PM EST / 2018.12.11 2253 UTC
Wind: from the W (280 degrees) at 5 MPH (4 KT):0
Visibility: 10 mile(s):0
Sky conditions: clear
Temperature: 51.1 F (10.6 C)
Dew Point: 37.0 F (2.8 C)
Relative Humidity: 58%
Pressure (altimeter): 30.25 in. Hg (1024 hPa)
ob: KSSI 112253Z AUTO 28004KT 10SM CLR 11/03 A3025 RMK AO2 SLP245 T01060028 PNO
cycle: 23

Station Type Date Time Source
KSSI TAF 2018/12/11 19:04 UTC NOAA

TAF
AMD KSSI 111902Z 1119/1218 31009KT P6SM SKC
FM112300 27004KT P6SM SKC


Example: see airport list